sensor_id;sensor_type;location;lat;lon;timestamp;P1;durP1;ratioP1;P2;durP2;ratioP2
32323;SDS011;25666;44.350;9.222;2022-07-21T00:00:51;16.13;;;5.22;;
32323;SDS011;25666;44.350;9.222;2022-07-21T00:03:17;7.32;;;5.13;;
32323;SDS011;25666;44.350;9.222;2022-07-21T00:05:42;9.02;;;5.38;;
32323;SDS011;25666;44.350;9.222;2022-07-21T00:08:08;9.60;;;5.30;;
32323;SDS011;25666;44.350;9.222;2022-07-21T00:10:33;9.43;;;5.25;;
32323;SDS011;25666;44.350;9.222;2022-07-21T00:12:59;11.13;;;5.15;;
32323;SDS011;25666;44.350;9.222;2022-07-21T00:15:25;5.72;;;4.45;;
32323;SDS011;25666;44.350;9.222;2022-07-21T00:17:52;7.18;;;4.97;;
32323;SDS011;25666;44.350;9.222;2022-07-21T00:20:19;5.95;;;4.43;;
32323;SDS011;25666;44.350;9.222;2022-07-21T00:22:45;9.77;;;5.50;;
32323;SDS011;25666;44.350;9.222;2022-07-21T00:25:12;7.38;;;4.22;;
32323;SDS011;25666;44.350;9.222;2022-07-21T00:27:38;6.22;;;4.80;;
32323;SDS011;25666;44.350;9.222;2022-07-21T00:30:04;8.57;;;4.63;;
32323;SDS011;25666;44.350;9.222;2022-07-21T00:32:32;8.23;;;4.30;;
32323;SDS011;25666;44.350;9.222;2022-07-21T00:34:57;4.45;;;3.72;;
32323;SDS011;25666;44.350;9.222;2022-07-21T00:37:23;5.95;;;4.40;;
32323;SDS011;25666;44.350;9.222;2022-07-21T00:39:49;15.80;;;5.47;;
32323;SDS011;25666;44.350;9.222;2022-07-21T00:42:26;9.25;;;4.13;;
32323;SDS011;25666;44.350;9.222;2022-07-21T00:44:53;7.20;;;5.00;;
32323;SDS011;25666;44.350;9.222;2022-07-21T00:47:22;8.30;;;5.10;;
32323;SDS011;25666;44.350;9.222;2022-07-21T00:49:49;8.57;;;4.75;;
32323;SDS011;25666;44.350;9.222;2022-07-21T00:52:15;6.85;;;4.78;;
32323;SDS011;25666;44.350;9.222;2022-07-21T00:54:41;6.97;;;4.60;;
32323;SDS011;25666;44.350;9.222;2022-07-21T00:57:08;10.57;;;5.35;;
32323;SDS011;25666;44.350;9.222;2022-07-21T00:59:33;12.60;;;4.75;;
32323;SDS011;25666;44.350;9.222;2022-07-21T01:01:59;5.43;;;4.45;;
32323;SDS011;25666;44.350;9.222;2022-07-21T01:04:25;8.75;;;5.03;;
32323;SDS011;25666;44.350;9.222;2022-07-21T01:06:52;8.68;;;4.57;;
32323;SDS011;25666;44.350;9.222;2022-07-21T01:09:19;9.15;;;5.22;;
32323;SDS011;25666;44.350;9.222;2022-07-21T01:11:45;6.65;;;5.00;;
32323;SDS011;25666;44.350;9.222;2022-07-21T01:14:12;8.10;;;4.68;;
32323;SDS011;25666;44.350;9.222;2022-07-21T01:16:37;14.00;;;5.68;;
32323;SDS011;25666;44.350;9.222;2022-07-21T01:19:03;7.97;;;5.35;;
32323;SDS011;25666;44.350;9.222;2022-07-21T01:21:41;8.82;;;5.22;;
32323;SDS011;25666;44.350;9.222;2022-07-21T01:24:09;7.38;;;4.80;;
32323;SDS011;25666;44.350;9.222;2022-07-21T01:26:41;7.97;;;4.95;;
32323;SDS011;25666;44.350;9.222;2022-07-21T01:29:09;9.70;;;4.75;;
32323;SDS011;25666;44.350;9.222;2022-07-21T01:31:36;8.50;;;4.93;;
32323;SDS011;25666;44.350;9.222;2022-07-21T01:34:03;13.13;;;5.25;;
32323;SDS011;25666;44.350;9.222;2022-07-21T01:36:28;14.00;;;5.38;;
32323;SDS011;25666;44.350;9.222;2022-07-21T01:38:54;6.47;;;4.82;;
32323;SDS011;25666;44.350;9.222;2022-07-21T01:41:38;6.63;;;4.80;;
32323;SDS011;25666;44.350;9.222;2022-07-21T01:44:04;8.77;;;5.40;;
32323;SDS011;25666;44.350;9.222;2022-07-21T01:46:33;7.13;;;5.45;;
32323;SDS011;25666;44.350;9.222;2022-07-21T01:49:03;7.63;;;4.70;;
32323;SDS011;25666;44.350;9.222;2022-07-21T01:51:29;8.43;;;4.57;;
32323;SDS011;25666;44.350;9.222;2022-07-21T01:53:56;8.80;;;5.47;;
32323;SDS011;25666;44.350;9.222;2022-07-21T01:56:22;6.25;;;4.82;;
32323;SDS011;25666;44.350;9.222;2022-07-21T01:58:49;9.05;;;5.57;;
32323;SDS011;25666;44.350;9.222;2022-07-21T02:01:16;8.07;;;4.90;;
32323;SDS011;25666;44.350;9.222;2022-07-21T02:03:43;10.15;;;4.88;;
32323;SDS011;25666;44.350;9.222;2022-07-21T02:06:09;7.25;;;4.97;;
32323;SDS011;25666;44.350;9.222;2022-07-21T02:08:35;5.63;;;4.40;;
32323;SDS011;25666;44.350;9.222;2022-07-21T02:11:00;11.70;;;6.07;;
32323;SDS011;25666;44.350;9.222;2022-07-21T02:13:26;7.97;;;4.97;;
32323;SDS011;25666;44.350;9.222;2022-07-21T02:15:52;6.43;;;4.70;;
32323;SDS011;25666;44.350;9.222;2022-07-21T02:18:18;7.90;;;4.75;;
32323;SDS011;25666;44.350;9.222;2022-07-21T02:20:44;7.20;;;5.18;;
32323;SDS011;25666;44.350;9.222;2022-07-21T02:23:10;11.18;;;5.40;;
32323;SDS011;25666;44.350;9.222;2022-07-21T02:25:36;9.05;;;5.10;;
32323;SDS011;25666;44.350;9.222;2022-07-21T02:28:01;11.90;;;5.38;;
32323;SDS011;25666;44.350;9.222;2022-07-21T02:30:27;6.60;;;5.03;;
32323;SDS011;25666;44.350;9.222;2022-07-21T02:32:52;7.57;;;5.10;;
32323;SDS011;25666;44.350;9.222;2022-07-21T02:35:18;17.80;;;6.20;;
32323;SDS011;25666;44.350;9.222;2022-07-21T02:37:44;8.38;;;5.00;;
32323;SDS011;25666;44.350;9.222;2022-07-21T02:40:10;8.23;;;5.20;;
32323;SDS011;25666;44.350;9.222;2022-07-21T02:42:35;9.65;;;4.68;;
32323;SDS011;25666;44.350;9.222;2022-07-21T02:45:03;6.28;;;5.10;;
32323;SDS011;25666;44.350;9.222;2022-07-21T02:47:33;8.80;;;4.80;;
32323;SDS011;25666;44.350;9.222;2022-07-21T02:50:23;11.45;;;5.22;;
32323;SDS011;25666;44.350;9.222;2022-07-21T02:52:53;7.53;;;4.95;;
32323;SDS011;25666;44.350;9.222;2022-07-21T02:55:20;10.02;;;5.45;;
32323;SDS011;25666;44.350;9.222;2022-07-21T02:57:46;9.48;;;5.10;;
32323;SDS011;25666;44.350;9.222;2022-07-21T03:00:11;10.38;;;5.30;;
32323;SDS011;25666;44.350;9.222;2022-07-21T03:02:37;6.53;;;5.00;;
32323;SDS011;25666;44.350;9.222;2022-07-21T03:05:03;7.03;;;4.93;;
32323;SDS011;25666;44.350;9.222;2022-07-21T03:07:29;9.00;;;5.38;;
32323;SDS011;25666;44.350;9.222;2022-07-21T03:09:55;8.20;;;5.43;;
32323;SDS011;25666;44.350;9.222;2022-07-21T03:12:20;8.88;;;5.25;;
32323;SDS011;25666;44.350;9.222;2022-07-21T03:14:46;9.02;;;5.70;;
32323;SDS011;25666;44.350;9.222;2022-07-21T03:17:11;9.30;;;5.00;;
32323;SDS011;25666;44.350;9.222;2022-07-21T03:19:37;6.72;;;5.10;;
32323;SDS011;25666;44.350;9.222;2022-07-21T03:22:02;6.53;;;5.15;;
32323;SDS011;25666;44.350;9.222;2022-07-21T03:24:28;10.63;;;5.18;;
32323;SDS011;25666;44.350;9.222;2022-07-21T03:26:54;8.95;;;5.20;;
32323;SDS011;25666;44.350;9.222;2022-07-21T03:29:21;12.85;;;5.40;;
32323;SDS011;25666;44.350;9.222;2022-07-21T03:31:46;11.23;;;6.75;;
32323;SDS011;25666;44.350;9.222;2022-07-21T03:34:12;6.60;;;4.72;;
32323;SDS011;25666;44.350;9.222;2022-07-21T03:36:37;7.05;;;5.13;;
32323;SDS011;25666;44.350;9.222;2022-07-21T03:39:03;9.95;;;5.63;;
32323;SDS011;25666;44.350;9.222;2022-07-21T03:41:29;11.43;;;5.70;;
32323;SDS011;25666;44.350;9.222;2022-07-21T03:43:54;13.35;;;5.95;;
32323;SDS011;25666;44.350;9.222;2022-07-21T03:46:20;11.18;;;5.50;;
32323;SDS011;25666;44.350;9.222;2022-07-21T03:48:45;10.27;;;5.60;;
32323;SDS011;25666;44.350;9.222;2022-07-21T03:51:11;6.95;;;5.32;;
32323;SDS011;25666;44.350;9.222;2022-07-21T03:53:36;9.80;;;5.43;;
32323;SDS011;25666;44.350;9.222;2022-07-21T03:56:02;8.48;;;5.20;;
32323;SDS011;25666;44.350;9.222;2022-07-21T03:58:28;10.30;;;6.20;;
32323;SDS011;25666;44.350;9.222;2022-07-21T04:00:54;11.25;;;5.22;;
32323;SDS011;25666;44.350;9.222;2022-07-21T04:03:20;8.20;;;6.05;;
32323;SDS011;25666;44.350;9.222;2022-07-21T04:05:45;9.98;;;5.90;;
32323;SDS011;25666;44.350;9.222;2022-07-21T04:08:11;9.35;;;5.68;;
32323;SDS011;25666;44.350;9.222;2022-07-21T04:10:39;9.88;;;5.85;;
32323;SDS011;25666;44.350;9.222;2022-07-21T04:13:07;10.93;;;6.53;;
32323;SDS011;25666;44.350;9.222;2022-07-21T04:15:35;7.50;;;5.60;;
32323;SDS011;25666;44.350;9.222;2022-07-21T04:18:01;11.50;;;5.80;;
32323;SDS011;25666;44.350;9.222;2022-07-21T04:20:28;10.60;;;5.53;;
32323;SDS011;25666;44.350;9.222;2022-07-21T04:22:54;9.00;;;5.35;;
32323;SDS011;25666;44.350;9.222;2022-07-21T04:25:20;7.38;;;5.60;;
32323;SDS011;25666;44.350;9.222;2022-07-21T04:27:47;9.98;;;5.70;;
32323;SDS011;25666;44.350;9.222;2022-07-21T04:30:14;9.50;;;5.20;;
32323;SDS011;25666;44.350;9.222;2022-07-21T04:32:42;10.38;;;4.97;;
32323;SDS011;25666;44.350;9.222;2022-07-21T04:35:08;10.63;;;5.32;;
32323;SDS011;25666;44.350;9.222;2022-07-21T04:37:34;6.65;;;4.90;;
32323;SDS011;25666;44.350;9.222;2022-07-21T04:40:00;8.98;;;5.53;;
32323;SDS011;25666;44.350;9.222;2022-07-21T04:42:28;8.68;;;4.70;;
32323;SDS011;25666;44.350;9.222;2022-07-21T04:44:53;8.50;;;5.05;;
32323;SDS011;25666;44.350;9.222;2022-07-21T04:47:19;9.48;;;5.18;;
32323;SDS011;25666;44.350;9.222;2022-07-21T04:49:44;7.75;;;5.70;;
32323;SDS011;25666;44.350;9.222;2022-07-21T04:52:10;9.85;;;5.72;;
32323;SDS011;25666;44.350;9.222;2022-07-21T04:54:36;13.20;;;6.50;;
32323;SDS011;25666;44.350;9.222;2022-07-21T04:57:01;7.43;;;5.60;;
32323;SDS011;25666;44.350;9.222;2022-07-21T04:59:31;10.32;;;5.65;;
32323;SDS011;25666;44.350;9.222;2022-07-21T05:01:58;7.32;;;5.55;;
32323;SDS011;25666;44.350;9.222;2022-07-21T05:04:24;7.68;;;5.68;;
32323;SDS011;25666;44.350;9.222;2022-07-21T05:06:50;9.05;;;5.47;;
32323;SDS011;25666;44.350;9.222;2022-07-21T05:09:16;10.60;;;6.07;;
32323;SDS011;25666;44.350;9.222;2022-07-21T05:11:42;7.88;;;5.47;;
32323;SDS011;25666;44.350;9.222;2022-07-21T05:14:07;13.55;;;6.35;;
32323;SDS011;25666;44.350;9.222;2022-07-21T05:16:33;11.75;;;6.00;;
32323;SDS011;25666;44.350;9.222;2022-07-21T05:18:59;12.23;;;5.25;;
32323;SDS011;25666;44.350;9.222;2022-07-21T05:21:24;15.45;;;6.40;;
32323;SDS011;25666;44.350;9.222;2022-07-21T05:23:50;12.65;;;6.22;;
32323;SDS011;25666;44.350;9.222;2022-07-21T05:26:16;11.80;;;5.93;;
32323;SDS011;25666;44.350;9.222;2022-07-21T05:28:41;10.98;;;6.53;;
32323;SDS011;25666;44.350;9.222;2022-07-21T05:31:07;11.30;;;5.75;;
32323;SDS011;25666;44.350;9.222;2022-07-21T05:33:33;7.47;;;5.82;;
32323;SDS011;25666;44.350;9.222;2022-07-21T05:35:59;9.70;;;5.47;;
32323;SDS011;25666;44.350;9.222;2022-07-21T05:38:25;7.85;;;6.00;;
32323;SDS011;25666;44.350;9.222;2022-07-21T05:40:50;13.02;;;5.85;;
32323;SDS011;25666;44.350;9.222;2022-07-21T05:43:16;13.45;;;6.07;;
32323;SDS011;25666;44.350;9.222;2022-07-21T05:45:42;11.25;;;6.13;;
32323;SDS011;25666;44.350;9.222;2022-07-21T05:48:07;10.18;;;5.53;;
32323;SDS011;25666;44.350;9.222;2022-07-21T05:50:33;16.25;;;6.22;;
32323;SDS011;25666;44.350;9.222;2022-07-21T05:52:59;8.85;;;5.70;;
32323;SDS011;25666;44.350;9.222;2022-07-21T05:55:24;6.78;;;5.43;;
32323;SDS011;25666;44.350;9.222;2022-07-21T05:57:50;7.47;;;5.57;;
32323;SDS011;25666;44.350;9.222;2022-07-21T06:00:16;7.70;;;5.15;;
32323;SDS011;25666;44.350;9.222;2022-07-21T06:02:43;7.78;;;6.18;;
32323;SDS011;25666;44.350;9.222;2022-07-21T06:05:09;9.57;;;5.50;;
32323;SDS011;25666;44.350;9.222;2022-07-21T06:07:36;10.45;;;5.72;;
32323;SDS011;25666;44.350;9.222;2022-07-21T06:10:03;16.23;;;5.70;;
32323;SDS011;25666;44.350;9.222;2022-07-21T06:12:28;13.82;;;5.72;;
32323;SDS011;25666;44.350;9.222;2022-07-21T06:14:54;15.75;;;5.15;;
32323;SDS011;25666;44.350;9.222;2022-07-21T06:17:20;11.13;;;5.43;;
32323;SDS011;25666;44.350;9.222;2022-07-21T06:19:46;12.25;;;6.45;;
32323;SDS011;25666;44.350;9.222;2022-07-21T06:22:13;14.63;;;5.78;;
32323;SDS011;25666;44.350;9.222;2022-07-21T06:24:38;7.78;;;5.60;;
32323;SDS011;25666;44.350;9.222;2022-07-21T06:27:04;10.18;;;5.53;;
32323;SDS011;25666;44.350;9.222;2022-07-21T06:29:30;15.07;;;5.28;;
32323;SDS011;25666;44.350;9.222;2022-07-21T06:31:56;6.53;;;5.10;;
32323;SDS011;25666;44.350;9.222;2022-07-21T06:34:21;6.90;;;5.05;;
32323;SDS011;25666;44.350;9.222;2022-07-21T06:36:47;22.40;;;6.43;;
32323;SDS011;25666;44.350;9.222;2022-07-21T06:39:12;22.65;;;7.10;;
32323;SDS011;25666;44.350;9.222;2022-07-21T06:41:38;13.15;;;6.78;;
32323;SDS011;25666;44.350;9.222;2022-07-21T06:44:11;10.68;;;6.43;;
32323;SDS011;25666;44.350;9.222;2022-07-21T06:46:37;9.55;;;5.72;;
32323;SDS011;25666;44.350;9.222;2022-07-21T06:49:02;11.77;;;5.88;;
32323;SDS011;25666;44.350;9.222;2022-07-21T06:51:28;7.57;;;6.13;;
32323;SDS011;25666;44.350;9.222;2022-07-21T06:53:54;6.22;;;5.53;;
32323;SDS011;25666;44.350;9.222;2022-07-21T06:56:19;7.90;;;5.50;;
32323;SDS011;25666;44.350;9.222;2022-07-21T06:58:46;7.10;;;6.28;;
32323;SDS011;25666;44.350;9.222;2022-07-21T07:01:11;7.03;;;6.18;;
32323;SDS011;25666;44.350;9.222;2022-07-21T07:03:40;11.65;;;7.55;;
32323;SDS011;25666;44.350;9.222;2022-07-21T07:06:05;10.20;;;6.70;;
32323;SDS011;25666;44.350;9.222;2022-07-21T07:08:31;9.63;;;7.03;;
32323;SDS011;25666;44.350;9.222;2022-07-21T07:10:58;8.77;;;6.43;;
32323;SDS011;25666;44.350;9.222;2022-07-21T07:13:24;19.40;;;7.45;;
32323;SDS011;25666;44.350;9.222;2022-07-21T07:15:49;19.63;;;8.10;;
32323;SDS011;25666;44.350;9.222;2022-07-21T07:18:15;8.13;;;7.32;;
32323;SDS011;25666;44.350;9.222;2022-07-21T07:20:40;12.18;;;7.53;;
32323;SDS011;25666;44.350;9.222;2022-07-21T07:23:06;10.57;;;7.68;;
32323;SDS011;25666;44.350;9.222;2022-07-21T07:25:31;9.68;;;8.05;;
32323;SDS011;25666;44.350;9.222;2022-07-21T07:27:57;10.90;;;7.07;;
32323;SDS011;25666;44.350;9.222;2022-07-21T07:30:23;8.48;;;7.22;;
32323;SDS011;25666;44.350;9.222;2022-07-21T07:32:49;8.52;;;7.45;;
32323;SDS011;25666;44.350;9.222;2022-07-21T07:35:16;9.98;;;7.82;;
32323;SDS011;25666;44.350;9.222;2022-07-21T07:37:42;12.10;;;8.15;;
32323;SDS011;25666;44.350;9.222;2022-07-21T07:40:11;14.35;;;7.43;;
32323;SDS011;25666;44.350;9.222;2022-07-21T07:42:39;9.35;;;8.38;;
32323;SDS011;25666;44.350;9.222;2022-07-21T07:45:05;7.32;;;6.63;;
32323;SDS011;25666;44.350;9.222;2022-07-21T07:47:32;9.93;;;8.48;;
32323;SDS011;25666;44.350;9.222;2022-07-21T07:49:58;7.90;;;7.30;;
32323;SDS011;25666;44.350;9.222;2022-07-21T07:52:23;11.75;;;9.30;;
32323;SDS011;25666;44.350;9.222;2022-07-21T07:54:49;7.90;;;7.10;;
32323;SDS011;25666;44.350;9.222;2022-07-21T07:57:15;10.15;;;8.05;;
32323;SDS011;25666;44.350;9.222;2022-07-21T07:59:41;9.77;;;7.93;;
32323;SDS011;25666;44.350;9.222;2022-07-21T08:02:06;7.88;;;7.20;;
32323;SDS011;25666;44.350;9.222;2022-07-21T08:04:32;7.07;;;6.40;;
32323;SDS011;25666;44.350;9.222;2022-07-21T08:06:57;9.27;;;7.28;;
32323;SDS011;25666;44.350;9.222;2022-07-21T08:09:23;7.75;;;6.95;;
32323;SDS011;25666;44.350;9.222;2022-07-21T08:11:48;9.23;;;6.68;;
32323;SDS011;25666;44.350;9.222;2022-07-21T08:14:15;7.47;;;6.13;;
32323;SDS011;25666;44.350;9.222;2022-07-21T08:16:41;8.10;;;6.70;;
32323;SDS011;25666;44.350;9.222;2022-07-21T08:19:07;7.75;;;6.30;;
32323;SDS011;25666;44.350;9.222;2022-07-21T08:21:33;7.07;;;6.00;;
32323;SDS011;25666;44.350;9.222;2022-07-21T08:24:02;7.95;;;6.78;;
32323;SDS011;25666;44.350;9.222;2022-07-21T08:26:28;11.30;;;7.40;;
32323;SDS011;25666;44.350;9.222;2022-07-21T08:28:54;12.00;;;8.02;;
32323;SDS011;25666;44.350;9.222;2022-07-21T08:31:22;8.02;;;7.22;;
32323;SDS011;25666;44.350;9.222;2022-07-21T08:33:49;12.23;;;7.25;;
32323;SDS011;25666;44.350;9.222;2022-07-21T08:36:15;7.85;;;6.85;;
32323;SDS011;25666;44.350;9.222;2022-07-21T08:38:42;12.20;;;7.38;;
32323;SDS011;25666;44.350;9.222;2022-07-21T08:41:08;13.70;;;7.90;;
32323;SDS011;25666;44.350;9.222;2022-07-21T08:43:34;8.27;;;6.68;;
32323;SDS011;25666;44.350;9.222;2022-07-21T08:46:00;11.05;;;7.70;;
32323;SDS011;25666;44.350;9.222;2022-07-21T08:48:26;11.40;;;7.63;;
32323;SDS011;25666;44.350;9.222;2022-07-21T08:50:54;8.05;;;6.80;;
32323;SDS011;25666;44.350;9.222;2022-07-21T08:53:21;10.45;;;7.22;;
32323;SDS011;25666;44.350;9.222;2022-07-21T08:55:46;18.20;;;9.93;;
32323;SDS011;25666;44.350;9.222;2022-07-21T08:58:12;10.98;;;8.23;;
32323;SDS011;25666;44.350;9.222;2022-07-21T09:00:39;13.80;;;9.25;;
32323;SDS011;25666;44.350;9.222;2022-07-21T09:03:08;10.65;;;7.95;;
32323;SDS011;25666;44.350;9.222;2022-07-21T09:05:40;9.35;;;7.32;;
32323;SDS011;25666;44.350;9.222;2022-07-21T09:08:06;13.60;;;8.50;;
32323;SDS011;25666;44.350;9.222;2022-07-21T09:10:32;9.93;;;8.68;;
32323;SDS011;25666;44.350;9.222;2022-07-21T09:13:03;14.23;;;9.02;;
32323;SDS011;25666;44.350;9.222;2022-07-21T09:15:31;12.30;;;10.18;;
32323;SDS011;25666;44.350;9.222;2022-07-21T09:18:04;14.32;;;9.57;;
32323;SDS011;25666;44.350;9.222;2022-07-21T09:20:35;10.15;;;8.07;;
32323;SDS011;25666;44.350;9.222;2022-07-21T09:23:20;11.73;;;7.95;;
32323;SDS011;25666;44.350;9.222;2022-07-21T09:25:51;9.73;;;8.15;;
32323;SDS011;25666;44.350;9.222;2022-07-21T09:28:23;9.32;;;8.00;;
32323;SDS011;25666;44.350;9.222;2022-07-21T09:33:45;12.25;;;8.80;;
32323;SDS011;25666;44.350;9.222;2022-07-21T09:36:13;10.45;;;8.57;;
32323;SDS011;25666;44.350;9.222;2022-07-21T09:38:44;13.13;;;9.40;;
32323;SDS011;25666;44.350;9.222;2022-07-21T09:41:17;11.70;;;9.15;;
32323;SDS011;25666;44.350;9.222;2022-07-21T09:43:46;10.63;;;9.07;;
32323;SDS011;25666;44.350;9.222;2022-07-21T09:46:26;12.85;;;9.15;;
32323;SDS011;25666;44.350;9.222;2022-07-21T09:48:55;11.93;;;9.00;;
32323;SDS011;25666;44.350;9.222;2022-07-21T09:51:32;13.30;;;9.18;;
32323;SDS011;25666;44.350;9.222;2022-07-21T09:54:00;19.98;;;9.25;;
32323;SDS011;25666;44.350;9.222;2022-07-21T09:56:32;10.10;;;9.07;;
32323;SDS011;25666;44.350;9.222;2022-07-21T09:59:03;13.93;;;9.63;;
32323;SDS011;25666;44.350;9.222;2022-07-21T10:01:30;10.60;;;8.85;;
32323;SDS011;25666;44.350;9.222;2022-07-21T10:03:56;11.23;;;9.27;;
32323;SDS011;25666;44.350;9.222;2022-07-21T10:06:24;15.25;;;9.43;;
32323;SDS011;25666;44.350;9.222;2022-07-21T10:08:53;9.10;;;8.18;;
32323;SDS011;25666;44.350;9.222;2022-07-21T10:11:20;12.82;;;8.80;;
32323;SDS011;25666;44.350;9.222;2022-07-21T10:13:46;10.95;;;9.60;;
32323;SDS011;25666;44.350;9.222;2022-07-21T10:16:12;11.80;;;9.02;;
32323;SDS011;25666;44.350;9.222;2022-07-21T10:24:11;11.80;;;9.05;;
32323;SDS011;25666;44.350;9.222;2022-07-21T10:32:21;12.38;;;9.98;;
32323;SDS011;25666;44.350;9.222;2022-07-21T10:34:55;11.88;;;9.82;;
32323;SDS011;25666;44.350;9.222;2022-07-21T10:37:56;12.18;;;9.63;;
32323;SDS011;25666;44.350;9.222;2022-07-21T10:45:30;10.25;;;8.93;;
32323;SDS011;25666;44.350;9.222;2022-07-21T10:47:56;35.22;;;10.20;;
32323;SDS011;25666;44.350;9.222;2022-07-21T10:50:56;13.95;;;11.27;;
32323;SDS011;25666;44.350;9.222;2022-07-21T10:53:16;16.35;;;10.30;;
32323;SDS011;25666;44.350;9.222;2022-07-21T10:55:47;12.90;;;10.57;;
32323;SDS011;25666;44.350;9.222;2022-07-21T10:58:23;17.25;;;9.82;;
32323;SDS011;25666;44.350;9.222;2022-07-21T11:08:52;15.32;;;11.20;;
32323;SDS011;25666;44.350;9.222;2022-07-21T11:11:30;20.40;;;12.18;;
32323;SDS011;25666;44.350;9.222;2022-07-21T11:17:03;16.33;;;10.63;;
32323;SDS011;25666;44.350;9.222;2022-07-21T11:19:36;12.98;;;11.18;;
32323;SDS011;25666;44.350;9.222;2022-07-21T11:22:19;15.65;;;12.18;;
32323;SDS011;25666;44.350;9.222;2022-07-21T11:27:16;16.98;;;11.70;;
32323;SDS011;25666;44.350;9.222;2022-07-21T11:29:44;14.70;;;11.18;;
32323;SDS011;25666;44.350;9.222;2022-07-21T11:32:11;14.35;;;12.32;;
32323;SDS011;25666;44.350;9.222;2022-07-21T11:37:15;15.60;;;12.13;;
32323;SDS011;25666;44.350;9.222;2022-07-21T11:39:43;14.73;;;11.40;;
32323;SDS011;25666;44.350;9.222;2022-07-21T11:42:10;14.27;;;9.95;;
32323;SDS011;25666;44.350;9.222;2022-07-21T11:44:38;14.73;;;10.18;;
32323;SDS011;25666;44.350;9.222;2022-07-21T11:47:06;13.32;;;10.13;;
32323;SDS011;25666;44.350;9.222;2022-07-21T11:49:34;17.30;;;13.25;;
32323;SDS011;25666;44.350;9.222;2022-07-21T11:52:04;15.23;;;10.73;;
32323;SDS011;25666;44.350;9.222;2022-07-21T11:54:44;15.98;;;10.93;;
32323;SDS011;25666;44.350;9.222;2022-07-21T11:57:16;14.15;;;10.88;;
32323;SDS011;25666;44.350;9.222;2022-07-21T11:59:43;14.13;;;10.88;;
32323;SDS011;25666;44.350;9.222;2022-07-21T12:02:11;13.95;;;10.50;;
32323;SDS011;25666;44.350;9.222;2022-07-21T12:07:13;16.98;;;12.23;;
32323;SDS011;25666;44.350;9.222;2022-07-21T12:09:41;17.83;;;11.55;;
32323;SDS011;25666;44.350;9.222;2022-07-21T12:12:08;18.08;;;11.63;;
32323;SDS011;25666;44.350;9.222;2022-07-21T12:17:06;13.13;;;11.63;;
32323;SDS011;25666;44.350;9.222;2022-07-21T12:19:32;15.82;;;11.98;;
32323;SDS011;25666;44.350;9.222;2022-07-21T12:21:58;19.35;;;13.00;;
32323;SDS011;25666;44.350;9.222;2022-07-21T12:24:46;16.25;;;13.15;;
32323;SDS011;25666;44.350;9.222;2022-07-21T12:27:13;18.90;;;12.85;;
32323;SDS011;25666;44.350;9.222;2022-07-21T12:29:39;14.57;;;12.60;;
32323;SDS011;25666;44.350;9.222;2022-07-21T12:32:04;14.25;;;12.65;;
32323;SDS011;25666;44.350;9.222;2022-07-21T12:34:30;15.13;;;12.63;;
32323;SDS011;25666;44.350;9.222;2022-07-21T12:36:55;16.73;;;13.25;;
32323;SDS011;25666;44.350;9.222;2022-07-21T12:39:24;21.80;;;13.75;;
32323;SDS011;25666;44.350;9.222;2022-07-21T12:42:28;14.38;;;11.70;;
32323;SDS011;25666;44.350;9.222;2022-07-21T12:44:54;13.93;;;10.50;;
32323;SDS011;25666;44.350;9.222;2022-07-21T12:47:20;13.65;;;11.48;;
32323;SDS011;25666;44.350;9.222;2022-07-21T12:49:57;14.48;;;10.10;;
32323;SDS011;25666;44.350;9.222;2022-07-21T12:52:24;11.80;;;10.60;;
32323;SDS011;25666;44.350;9.222;2022-07-21T12:54:51;12.43;;;11.02;;
32323;SDS011;25666;44.350;9.222;2022-07-21T12:57:17;14.27;;;12.38;;
32323;SDS011;25666;44.350;9.222;2022-07-21T12:59:43;12.38;;;10.68;;
32323;SDS011;25666;44.350;9.222;2022-07-21T13:02:08;18.08;;;12.65;;
32323;SDS011;25666;44.350;9.222;2022-07-21T13:04:34;14.57;;;11.07;;
32323;SDS011;25666;44.350;9.222;2022-07-21T13:06:59;13.50;;;12.05;;
32323;SDS011;25666;44.350;9.222;2022-07-21T13:09:25;12.18;;;10.77;;
32323;SDS011;25666;44.350;9.222;2022-07-21T13:11:50;13.60;;;10.85;;
32323;SDS011;25666;44.350;9.222;2022-07-21T13:14:16;14.23;;;10.93;;
32323;SDS011;25666;44.350;9.222;2022-07-21T13:16:42;12.50;;;10.98;;
32323;SDS011;25666;44.350;9.222;2022-07-21T13:19:07;13.52;;;10.90;;
32323;SDS011;25666;44.350;9.222;2022-07-21T13:21:33;15.35;;;10.93;;
32323;SDS011;25666;44.350;9.222;2022-07-21T13:23:58;12.98;;;10.45;;
32323;SDS011;25666;44.350;9.222;2022-07-21T13:26:24;13.60;;;10.40;;
32323;SDS011;25666;44.350;9.222;2022-07-21T13:28:49;14.10;;;10.50;;
32323;SDS011;25666;44.350;9.222;2022-07-21T13:31:15;15.43;;;10.45;;
32323;SDS011;25666;44.350;9.222;2022-07-21T13:33:41;14.13;;;10.32;;
32323;SDS011;25666;44.350;9.222;2022-07-21T13:36:25;15.52;;;9.30;;
32323;SDS011;25666;44.350;9.222;2022-07-21T13:38:51;16.98;;;9.52;;
32323;SDS011;25666;44.350;9.222;2022-07-21T13:41:16;18.42;;;10.48;;
32323;SDS011;25666;44.350;9.222;2022-07-21T13:43:42;11.65;;;9.88;;
32323;SDS011;25666;44.350;9.222;2022-07-21T13:46:08;14.15;;;9.02;;
32323;SDS011;25666;44.350;9.222;2022-07-21T13:48:33;13.77;;;7.80;;
32323;SDS011;25666;44.350;9.222;2022-07-21T13:50:59;11.50;;;8.68;;
32323;SDS011;25666;44.350;9.222;2022-07-21T13:53:25;12.73;;;8.45;;
32323;SDS011;25666;44.350;9.222;2022-07-21T13:55:50;14.18;;;9.90;;
32323;SDS011;25666;44.350;9.222;2022-07-21T13:58:18;15.52;;;8.45;;
32323;SDS011;25666;44.350;9.222;2022-07-21T14:00:44;10.55;;;7.90;;
32323;SDS011;25666;44.350;9.222;2022-07-21T14:03:09;9.15;;;7.82;;
32323;SDS011;25666;44.350;9.222;2022-07-21T14:05:35;9.35;;;8.35;;
32323;SDS011;25666;44.350;9.222;2022-07-21T14:08:00;10.27;;;7.90;;
32323;SDS011;25666;44.350;9.222;2022-07-21T14:10:26;9.27;;;8.38;;
32323;SDS011;25666;44.350;9.222;2022-07-21T14:12:52;9.45;;;8.45;;
32323;SDS011;25666;44.350;9.222;2022-07-21T14:15:17;13.00;;;9.45;;
32323;SDS011;25666;44.350;9.222;2022-07-21T14:17:43;10.82;;;8.77;;
32323;SDS011;25666;44.350;9.222;2022-07-21T14:20:08;12.40;;;8.40;;
32323;SDS011;25666;44.350;9.222;2022-07-21T14:22:34;9.07;;;7.57;;
32323;SDS011;25666;44.350;9.222;2022-07-21T14:25:00;9.63;;;8.48;;
32323;SDS011;25666;44.350;9.222;2022-07-21T14:27:43;9.90;;;7.53;;
32323;SDS011;25666;44.350;9.222;2022-07-21T14:30:10;13.40;;;8.00;;
32323;SDS011;25666;44.350;9.222;2022-07-21T14:32:35;10.80;;;8.05;;
32323;SDS011;25666;44.350;9.222;2022-07-21T14:35:01;12.20;;;7.82;;
32323;SDS011;25666;44.350;9.222;2022-07-21T14:37:27;11.23;;;7.85;;
32323;SDS011;25666;44.350;9.222;2022-07-21T14:39:53;9.27;;;7.20;;
32323;SDS011;25666;44.350;9.222;2022-07-21T14:42:18;9.57;;;7.30;;
32323;SDS011;25666;44.350;9.222;2022-07-21T14:44:44;9.18;;;7.53;;
32323;SDS011;25666;44.350;9.222;2022-07-21T14:47:11;7.45;;;6.75;;
32323;SDS011;25666;44.350;9.222;2022-07-21T14:49:37;7.25;;;6.25;;
32323;SDS011;25666;44.350;9.222;2022-07-21T14:52:03;7.45;;;5.88;;
32323;SDS011;25666;44.350;9.222;2022-07-21T14:54:29;11.40;;;6.57;;
32323;SDS011;25666;44.350;9.222;2022-07-21T14:56:55;7.68;;;5.80;;
32323;SDS011;25666;44.350;9.222;2022-07-21T14:59:20;12.13;;;7.72;;
32323;SDS011;25666;44.350;9.222;2022-07-21T15:01:46;10.57;;;6.47;;
32323;SDS011;25666;44.350;9.222;2022-07-21T15:04:11;9.20;;;6.32;;
32323;SDS011;25666;44.350;9.222;2022-07-21T15:06:37;7.28;;;6.22;;
32323;SDS011;25666;44.350;9.222;2022-07-21T15:09:02;7.60;;;6.07;;
32323;SDS011;25666;44.350;9.222;2022-07-21T15:11:28;8.93;;;6.18;;
32323;SDS011;25666;44.350;9.222;2022-07-21T15:13:54;7.20;;;5.50;;
32323;SDS011;25666;44.350;9.222;2022-07-21T15:16:19;9.43;;;5.78;;
32323;SDS011;25666;44.350;9.222;2022-07-21T15:18:45;27.73;;;6.38;;